Time;durP1;ratioP1;P1;durP2;ratioP2;P2;SDS_P1;SDS_P2;PMS_P1;PMS_P2;Temp;Humidity;BMP_temperature;BMP_pressure;BME280_temperature;BME280_humidity;BME280_pressure;Samples;Min_cycle;Max_cycle;Signal;HPM_P1;HPM_P2
2024/01/01 00:00:15;;;;;;;;;7.33;4.33;;;;;8.76;72.37;100315.16;4975564;28;45486;-50
2024/01/01 00:02:41;;;;;;;;;9.00;2.00;;;;;8.61;71.45;100303.38;4975904;28;46069;-49
2024/01/01 00:05:07;;;;;;;;;5.00;2.67;;;;;8.74;72.16;100328.59;4975954;28;45371;-50
2024/01/01 00:07:33;;;;;;;;;4.33;2.00;;;;;8.70;72.13;100318.41;4975913;28;46106;-52
2024/01/01 00:09:58;;;;;;;;;2.67;2.67;;;;;8.72;72.48;100319.97;4975431;28;45410;-52
2024/01/01 00:12:23;;;;;;;;;20.33;12.67;;;;;8.73;71.98;100324.28;4975451;28;45569;-50
2024/01/01 00:14:49;;;;;;;;;9.33;6.00;;;;;8.72;72.28;100319.09;4976112;28;45423;-53
2024/01/01 00:17:14;;;;;;;;;40.75;27.50;;;;;8.73;72.56;100326.91;4975313;28;46811;-53
2024/01/01 00:19:40;;;;;;;;;7.33;4.33;;;;;8.73;72.44;100313.66;4975658;28;45422;-52
2024/01/01 00:22:06;;;;;;;;;8.33;4.33;;;;;8.66;71.98;100304.59;4975723;28;45326;-52
2024/01/01 00:24:31;;;;;;;;;2.33;2.33;;;;;8.74;71.75;100323.28;4975820;28;45503;-54
2024/01/01 00:26:56;;;;;;;;;5.00;3.67;;;;;8.74;72.34;100322.44;4974631;28;45436;-46
2024/01/01 00:29:22;;;;;;;;;5.00;2.00;;;;;8.73;72.08;100329.56;4975246;28;45569;-46
2024/01/01 00:31:47;;;;;;;;;6.00;4.33;;;;;8.74;72.01;100325.09;4975547;28;45452;-53
2024/01/01 00:34:12;;;;;;;;;9.00;5.33;;;;;8.73;72.93;100328.75;4975762;28;45626;-51
2024/01/01 00:36:38;;;;;;;;;3.67;3.00;;;;;8.67;72.54;100322.19;4975382;28;45351;-52
2024/01/01 00:39:03;;;;;;;;;5.00;5.00;;;;;8.72;72.46;100314.66;4974176;28;45508;-52
2024/01/01 00:41:28;;;;;;;;;3.67;3.67;;;;;8.68;71.99;100325.66;4975544;28;45572;-53
2024/01/01 00:43:54;;;;;;;;;7.00;5.00;;;;;8.71;72.10;100317.44;4975395;28;45487;-50
2024/01/01 00:46:19;;;;;;;;;6.67;3.67;;;;;8.69;72.24;100317.59;4975224;28;45513;-44
2024/01/01 00:48:44;;;;;;;;;7.00;2.67;;;;;8.69;73.20;100316.75;4975286;28;45414;-44
2024/01/01 00:51:10;;;;;;;;;3.67;2.67;;;;;8.68;72.40;100323.00;4975347;28;45553;-46
2024/01/01 00:53:35;;;;;;;;;5.67;2.33;;;;;8.69;73.19;100314.09;4975358;28;45414;-45
2024/01/01 00:56:00;;;;;;;;;9.67;3.00;;;;;8.68;72.52;100328.31;4975367;28;46954;-44
2024/01/01 00:58:26;;;;;;;;;7.00;5.00;;;;;8.67;73.22;100310.75;4975230;28;45454;-47
2024/01/01 01:00:51;;;;;;;;;7.00;3.00;;;;;8.67;73.15;100313.41;4975321;28;45812;-53
2024/01/01 01:03:16;;;;;;;;;5.00;2.67;;;;;8.56;73.02;100292.38;4975313;28;45288;-53
2024/01/01 01:05:42;;;;;;;;;5.67;3.00;;;;;8.66;73.10;100306.44;4974758;28;48161;-51
2024/01/01 01:08:07;;;;;;;;;3.67;2.00;;;;;8.67;72.58;100316.88;4975338;28;45272;-52
2024/01/01 01:10:32;;;;;;;;;6.67;2.67;;;;;8.65;72.44;100321.50;4975285;28;45351;-53
2024/01/01 01:12:58;;;;;;;;;10.00;2.00;;;;;8.64;73.20;100316.34;4975408;28;45312;-53
2024/01/01 01:15:26;;;;;;;;;10.33;2.00;;;;;8.63;72.49;100312.84;4974766;28;45364;-45
2024/01/01 01:17:51;;;;;;;;;5.00;3.33;;;;;8.64;73.03;100317.19;4975546;28;45423;-53
2024/01/01 01:20:18;;;;;;;;;12.67;6.33;;;;;8.63;73.18;100322.63;4974978;28;45405;-46
2024/01/01 01:22:44;;;;;;;;;1.00;1.00;;;;;8.64;73.08;100303.94;4975609;28;45357;-53
2024/01/01 01:25:10;;;;;;;;;5.67;5.00;;;;;8.65;73.30;100318.84;4974025;28;46771;-47
2024/01/01 01:27:35;;;;;;;;;7.33;3.67;;;;;8.63;73.01;100323.44;4974781;28;45533;-53
2024/01/01 01:30:02;;;;;;;;;10.33;2.67;;;;;8.63;73.23;100318.16;4974424;28;45442;-51
2024/01/01 01:32:27;;;;;;;;;6.00;3.33;;;;;8.60;72.58;100314.97;4974701;28;45476;-53
2024/01/01 01:34:52;;;;;;;;;6.00;3.67;;;;;8.61;73.24;100324.59;4974708;28;45456;-46
2024/01/01 01:37:18;;;;;;;;;8.00;2.67;;;;;8.56;72.98;100319.72;4974652;28;45439;-50
2024/01/01 01:39:44;;;;;;;;;11.33;3.67;;;;;8.60;72.32;100338.84;4976701;28;45453;-53
2024/01/01 01:42:09;;;;;;;;;8.00;3.00;;;;;8.58;73.01;100328.34;4978206;28;45538;-53
2024/01/01 01:44:35;;;;;;;;;2.67;2.00;;;;;8.58;72.90;100340.78;4978027;28;46001;-49
2024/01/01 01:47:01;;;;;;;;;6.00;2.00;;;;;8.57;72.81;100345.25;4977649;28;45528;-50
2024/01/01 01:49:27;;;;;;;;;7.33;3.00;;;;;8.50;72.54;100337.03;4978129;28;45673;-48
2024/01/01 01:51:54;;;;;;;;;7.33;2.00;;;;;8.55;73.09;100347.19;4978150;28;45383;-54
2024/01/01 01:54:23;;;;;;;;;3.67;3.00;;;;;8.54;72.31;100352.66;4977845;28;45311;-54
2024/01/01 01:56:49;;;;;;;;;3.00;3.00;;;;;8.54;72.85;100353.47;4978247;28;45398;-54
2024/01/01 01:59:15;;;;;;;;;12.67;2.00;;;;;8.53;72.49;100361.59;4977609;28;45528;-51
2024/01/01 02:01:41;;;;;;;;;5.67;5.33;;;;;8.54;73.32;100365.91;4977772;28;45308;-51
2024/01/01 02:04:06;;;;;;;;;9.33;3.67;;;;;8.53;72.42;100369.53;4977693;28;45445;-53
2024/01/01 02:06:31;;;;;;;;;5.33;2.00;;;;;8.52;72.91;100360.75;4977747;28;45554;-53
2024/01/01 02:08:57;;;;;;;;;6.00;1.33;;;;;8.50;72.84;100368.84;4977846;28;45299;-51
2024/01/01 02:11:22;;;;;;;;;7.00;2.67;;;;;8.51;72.64;100359.06;4977870;28;45435;-52
2024/01/01 02:13:48;;;;;;;;;2.67;2.67;;;;;8.51;72.93;100356.41;4977519;28;46093;-53
2024/01/01 02:16:13;;;;;;;;;6.67;3.00;;;;;8.47;72.68;100353.22;4977556;28;45442;-51
2024/01/01 02:18:40;;;;;;;;;1.00;1.00;;;;;8.49;72.18;100361.03;4978171;28;45474;-54
2024/01/01 02:21:05;;;;;;;;;2.67;1.00;;;;;8.46;72.30;100363.97;4977873;28;45264;-52
2024/01/01 02:23:31;;;;;;;;;7.67;2.00;;;;;8.44;72.35;100373.88;4977293;28;46975;-51
2024/01/01 02:25:57;;;;;;;;;5.67;2.00;;;;;8.35;72.67;100367.59;4977399;28;45360;-52
2024/01/01 02:28:22;;;;;;;;;8.67;3.00;;;;;8.30;73.27;100355.72;4977711;28;45415;-43
2024/01/01 02:30:47;;;;;;;;;8.67;2.67;;;;;8.42;73.00;100375.81;4977431;28;45359;-49
2024/01/01 02:33:14;;;;;;;;;2.67;2.67;;;;;8.42;72.47;100379.31;4977245;28;46934;-53
2024/01/01 02:35:39;;;;;;;;;2.00;2.00;;;;;8.43;72.99;100380.16;4976941;28;45438;-49
2024/01/01 02:38:07;;;;;;;;;7.67;3.33;;;;;8.41;72.83;100380.28;4977071;28;45355;-50
2024/01/01 02:40:34;;;;;;;;;8.33;2.00;;;;;8.40;72.07;100378.63;4977557;28;45343;-52
2024/01/01 02:43:00;;;;;;;;;6.00;1.33;;;;;8.39;72.68;100382.25;4976948;28;47230;-53
2024/01/01 02:45:34;;;;;;;;;1.67;1.00;;;;;8.39;72.18;100381.44;4977188;28;45445;-51
2024/01/01 02:48:00;;;;;;;;;1.00;1.00;;;;;8.29;71.88;100365.50;4977139;28;45482;-47
2024/01/01 02:50:25;;;;;;;;;3.00;3.00;;;;;8.37;72.10;100378.91;4976795;28;45383;-44
2024/01/01 02:52:51;;;;;;;;;3.00;2.00;;;;;8.37;72.65;100386.03;4977077;28;45427;-51
2024/01/01 02:55:16;;;;;;;;;2.33;2.33;;;;;8.34;72.25;100389.75;4976962;28;45424;-50
2024/01/01 02:57:41;;;;;;;;;3.67;2.00;;;;;8.33;72.75;100384.59;4977185;28;45319;-53
2024/01/01 03:00:10;;;;;;;;;5.67;2.00;;;;;8.34;72.63;100389.75;4977644;28;45392;-52
2024/01/01 03:02:39;;;;;;;;;4.00;2.00;;;;;8.33;72.17;100374.00;4976760;28;45488;-51
2024/01/01 03:05:06;;;;;;;;;4.33;2.00;;;;;8.33;71.77;100397.84;4976677;28;45233;-52
2024/01/01 03:07:32;;;;;;;;;10.00;2.33;;;;;8.31;72.18;100390.03;4977091;28;45395;-52
2024/01/01 03:09:57;;;;;;;;;3.67;2.00;;;;;8.22;71.84;100380.31;4976909;28;45444;-52
2024/01/01 03:12:23;;;;;;;;;3.00;3.00;;;;;8.33;72.30;100403.16;4975502;28;47181;-52
2024/01/01 03:14:48;;;;;;;;;6.00;2.00;;;;;8.33;72.36;100414.59;4976753;28;45422;-51
2024/01/01 03:17:13;;;;;;;;;4.00;2.67;;;;;8.34;72.00;100413.59;4976197;28;46868;-50
2024/01/01 03:19:39;;;;;;;;;8.67;6.00;;;;;8.37;72.56;100408.06;4975668;28;45505;-45
2024/01/01 03:22:04;;;;;;;;;7.33;5.00;;;;;8.40;71.99;100428.16;4976287;28;47165;-52
2024/01/01 03:24:29;;;;;;;;;2.67;2.00;;;;;8.40;71.50;100418.38;4976664;28;45433;-45
2024/01/01 03:26:55;;;;;;;;;7.00;3.67;;;;;8.40;72.22;100421.03;4977620;28;45461;-51
2024/01/01 03:29:20;;;;;;;;;6.00;3.00;;;;;8.41;71.52;100420.06;4978047;28;45382;-54
2024/01/01 03:31:45;;;;;;;;;4.00;2.00;;;;;8.41;71.26;100424.53;4977515;28;45338;-53
2024/01/01 03:34:11;;;;;;;;;5.67;2.00;;;;;8.30;72.17;100411.38;4977884;28;45366;-51
2024/01/01 03:36:36;;;;;;;;;3.00;1.00;;;;;8.42;71.20;100421.72;4978020;28;45486;-52
2024/01/01 03:39:02;;;;;;;;;5.67;2.00;;;;;8.43;71.57;100427.88;4977774;28;45285;-53
2024/01/01 03:41:27;;;;;;;;;3.67;2.00;;;;;8.41;71.26;100432.47;4977447;28;45670;-53
2024/01/01 03:43:52;;;;;;;;;8.67;6.33;;;;;8.44;71.85;100443.63;4977562;28;45528;-53
2024/01/01 03:46:18;;;;;;;;;2.33;1.33;;;;;8.44;71.12;100438.34;4977506;28;45256;-52
2024/01/01 03:48:43;;;;;;;;;7.00;2.00;;;;;8.46;71.00;100443.47;4977884;28;45287;-53
2024/01/01 03:51:09;;;;;;;;;9.67;2.00;;;;;8.41;71.17;100435.13;4977142;28;47296;-53
2024/01/01 03:53:35;;;;;;;;;6.67;3.00;;;;;8.42;71.10;100445.56;4976045;28;45451;-52
2024/01/01 03:56:00;;;;;;;;;4.33;2.00;;;;;8.40;71.24;100455.50;4977333;28;45255;-53
2024/01/01 03:58:25;;;;;;;;;2.67;2.00;;;;;8.37;70.42;100452.28;4977561;28;45477;-52
2024/01/01 04:00:50;;;;;;;;;6.00;3.00;;;;;8.37;70.43;100463.72;4977313;28;45423;-49
2024/01/01 04:03:16;;;;;;;;;2.67;2.00;;;;;8.35;71.17;100451.56;4976298;28;45354;-51
2024/01/01 04:05:41;;;;;;;;;6.67;2.00;;;;;8.32;70.58;100452.66;4977034;28;45539;-52
2024/01/01 04:08:06;;;;;;;;;4.00;1.00;;;;;8.31;70.50;100464.25;4977480;28;45371;-53
2024/01/01 04:10:32;;;;;;;;;3.67;1.00;;;;;8.30;70.34;100464.38;4976978;28;45517;-50
2024/01/01 04:12:57;;;;;;;;;2.00;1.00;;;;;8.28;70.76;100447.78;4977083;28;45410;-52
2024/01/01 04:15:22;;;;;;;;;8.33;5.00;;;;;8.26;70.66;100450.59;4977168;28;45400;-52
2024/01/01 04:17:48;;;;;;;;;5.00;4.00;;;;;8.23;71.14;100449.03;4976860;28;45386;-49
2024/01/01 04:20:13;;;;;;;;;0.67;0.67;;;;;8.23;69.92;100466.75;4977048;28;45977;-53
2024/01/01 04:22:40;;;;;;;;;5.67;1.00;;;;;8.22;70.61;100468.56;4976888;28;45560;-53
2024/01/01 04:25:06;;;;;;;;;3.00;1.67;;;;;8.17;70.07;100457.53;4976863;28;45387;-52
2024/01/01 04:27:32;;;;;;;;;3.33;1.00;;;;;8.21;69.57;100469.53;4977097;28;45697;-51
2024/01/01 04:29:57;;;;;;;;;2.67;1.33;;;;;7.91;69.88;100429.91;4976782;28;45713;-49
2024/01/01 04:32:24;;;;;;;;;6.00;1.00;;;;;8.19;69.63;100479.44;4977050;28;45271;-50
2024/01/01 04:34:50;;;;;;;;;4.33;0.33;;;;;8.18;70.52;100472.47;4977115;28;45257;-53
2024/01/01 04:37:15;;;;;;;;;4.00;1.00;;;;;8.19;70.36;100486.56;4976725;28;45371;-53
2024/01/01 04:39:40;;;;;;;;;3.33;1.00;;;;;8.18;69.77;100482.25;4976635;28;46296;-52
2024/01/01 04:42:06;;;;;;;;;1.67;1.00;;;;;8.17;69.48;100472.59;4976649;28;45409;-52
2024/01/01 04:44:32;;;;;;;;;3.67;1.00;;;;;8.14;70.64;100479.03;4976830;28;45416;-51
2024/01/01 04:46:57;;;;;;;;;0.33;0.33;;;;;8.07;69.93;100472.59;4976656;28;45481;-51
2024/01/01 04:49:23;;;;;;;;;3.00;2.00;;;;;8.11;69.61;100474.00;4976902;28;45920;-53
2024/01/01 04:51:48;;;;;;;;;2.00;2.00;;;;;8.09;70.69;100472.44;4976445;28;45312;-50
2024/01/01 04:54:13;;;;;;;;;0.00;0.00;;;;;8.07;69.89;100480.53;4976577;28;45829;-51
2024/01/01 04:56:39;;;;;;;;;1.00;1.00;;;;;8.06;70.13;100470.09;4976736;28;45333;-51
2024/01/01 04:59:06;;;;;;;;;1.00;1.00;;;;;8.06;70.81;100480.69;4976446;28;47228;-52
2024/01/01 05:01:31;;;;;;;;;1.67;1.00;;;;;8.06;70.13;100497.41;4976556;28;45702;-53
2024/01/01 05:03:57;;;;;;;;;5.00;0.00;;;;;8.05;70.64;100482.50;4976462;28;45256;-52
2024/01/01 05:06:22;;;;;;;;;1.00;1.00;;;;;8.02;70.49;100488.06;4976864;28;45418;-51
2024/01/01 05:08:47;;;;;;;;;1.00;1.00;;;;;8.01;70.38;100483.75;4976084;28;54051;-51
2024/01/01 05:11:12;;;;;;;;;5.00;1.00;;;;;7.99;70.56;100475.91;4975110;28;45264;-53
2024/01/01 05:13:38;;;;;;;;;1.00;1.00;;;;;7.96;70.32;100483.28;4978110;28;45381;-52
2024/01/01 05:16:08;;;;;;;;;3.00;2.00;;;;;8.00;70.34;100497.94;4980189;28;45176;-52
2024/01/01 05:18:33;;;;;;;;;0.00;0.00;;;;;7.97;69.90;100500.88;4979568;28;46298;-51
2024/01/01 05:20:59;;;;;;;;;1.67;1.33;;;;;7.94;70.49;100493.19;4979720;28;45311;-54
2024/01/01 05:23:24;;;;;;;;;3.00;2.00;;;;;7.92;70.35;100503.94;4979970;28;45430;-50
2024/01/01 05:25:49;;;;;;;;;1.67;0.00;;;;;7.90;69.63;100500.56;4978744;28;45298;-51
2024/01/01 05:28:15;;;;;;;;;2.00;2.00;;;;;7.92;70.13;100506.59;4979638;28;46443;-53
2024/01/01 05:30:40;;;;;;;;;4.00;1.00;;;;;7.90;70.30;100503.22;4979525;28;45333;-48
2024/01/01 05:33:05;;;;;;;;;2.00;1.00;;;;;7.88;70.09;100515.78;4979313;28;45362;-51
2024/01/01 05:35:31;;;;;;;;;3.67;0.67;;;;;7.88;70.17;100515.78;4979542;28;45382;-50
2024/01/01 05:37:56;;;;;;;;;1.00;0.00;;;;;7.89;70.67;100528.03;4979402;28;45293;-52
2024/01/01 05:40:22;;;;;;;;;1.33;1.00;;;;;7.85;70.99;100521.34;4979450;28;45271;-53
2024/01/01 05:42:47;;;;;;;;;4.00;1.00;;;;;7.89;70.46;100521.91;4979346;28;45379;-52
2024/01/01 05:45:13;;;;;;;;;3.33;2.00;;;;;7.74;70.61;100500.25;4979724;28;45312;-51
2024/01/01 05:47:38;;;;;;;;;2.33;2.00;;;;;7.85;70.34;100528.44;4979078;28;45426;-52
2024/01/01 05:50:04;;;;;;;;;2.00;0.67;;;;;7.85;70.46;100534.56;4979566;28;45257;-52
2024/01/01 05:52:29;;;;;;;;;4.67;2.00;;;;;7.83;70.43;100544.44;4979197;28;45423;-52
2024/01/01 05:54:54;;;;;;;;;2.67;2.33;;;;;7.81;70.74;100550.88;4979547;28;45274;-49
2024/01/01 05:57:20;;;;;;;;;1.00;0.67;;;;;7.79;70.96;100539.56;4979219;28;45304;-51
2024/01/01 05:59:45;;;;;;;;;5.33;1.33;;;;;7.79;71.13;100543.03;4979243;28;45293;-51
2024/01/01 06:02:10;;;;;;;;;9.00;2.00;;;;;7.80;71.08;100535.97;4978872;28;45477;-52
2024/01/01 06:04:36;;;;;;;;;2.67;0.33;;;;;7.76;71.38;100532.72;4979176;28;45467;-50
2024/01/01 06:07:01;;;;;;;;;2.00;0.33;;;;;7.70;70.92;100533.25;4978627;28;45405;-49
2024/01/01 06:09:27;;;;;;;;;1.33;1.33;;;;;7.71;71.18;100540.22;4978895;28;45521;-50
2024/01/01 06:11:52;;;;;;;;;2.00;0.00;;;;;7.76;71.37;100545.97;4979102;28;45493;-50
2024/01/01 06:14:17;;;;;;;;;8.00;5.67;;;;;7.76;71.32;100551.28;4978962;28;45585;-46
2024/01/01 06:16:44;;;;;;;;;0.00;0.00;;;;;7.74;71.24;100550.56;4978721;28;47131;-49
2024/01/01 06:19:10;;;;;;;;;5.33;2.33;;;;;7.72;71.51;100555.16;4978576;28;45406;-48
2024/01/01 06:21:35;;;;;;;;;4.00;0.67;;;;;7.72;71.97;100557.81;4978970;28;45898;-49
2024/01/01 06:24:00;;;;;;;;;0.00;0.00;;;;;7.63;72.73;100548.84;4978665;28;45312;-45
2024/01/01 06:26:26;;;;;;;;;1.33;0.33;;;;;7.69;71.70;100558.06;4977579;28;47077;-45
2024/01/01 06:28:51;;;;;;;;;3.00;1.00;;;;;7.69;72.08;100555.41;4978672;28;45301;-44
2024/01/01 06:31:16;;;;;;;;;1.67;0.33;;;;;7.69;71.99;100571.28;4978757;28;45362;-44
2024/01/01 06:33:42;;;;;;;;;1.33;0.67;;;;;7.65;72.04;100559.28;4978730;28;45252;-45
2024/01/01 06:36:09;;;;;;;;;1.33;1.33;;;;;7.65;72.63;100557.47;4978072;28;46100;-42
2024/01/01 06:38:36;;;;;;;;;2.33;1.00;;;;;7.65;71.76;100570.72;4978455;28;45294;-44
2024/01/01 06:41:01;;;;;;;;;0.33;0.33;;;;;7.67;72.27;100592.63;4978603;28;45349;-45
2024/01/01 06:43:27;;;;;;;;;4.33;2.00;;;;;7.69;72.55;100576.59;4978636;28;45440;-44
2024/01/01 06:45:52;;;;;;;;;4.00;2.00;;;;;7.68;72.08;100582.88;4978372;28;46055;-47
2024/01/01 06:48:17;;;;;;;;;2.33;1.00;;;;;7.67;72.40;100584.69;4978099;28;46812;-45
2024/01/01 06:50:43;;;;;;;;;2.67;0.33;;;;;7.64;72.95;100586.75;4978518;28;45409;-45
2024/01/01 06:53:08;;;;;;;;;5.00;1.33;;;;;7.64;71.81;100592.88;4978637;28;45358;-44
2024/01/01 06:55:34;;;;;;;;;1.00;1.00;;;;;7.66;72.43;100606.81;4978338;28;45484;-44
2024/01/01 06:57:59;;;;;;;;;2.33;1.33;;;;;7.65;72.75;100614.88;4978225;28;45309;-45
2024/01/01 07:00:24;;;;;;;;;5.00;0.67;;;;;7.65;72.50;100617.53;4978388;28;45362;-45
2024/01/01 07:02:50;;;;;;;;;5.33;1.00;;;;;7.66;72.65;100620.03;4978243;28;46023;-44
2024/01/01 07:05:15;;;;;;;;;6.00;1.00;;;;;7.67;72.79;100629.69;4977747;28;51656;-45
2024/01/01 07:07:41;;;;;;;;;1.00;0.67;;;;;7.66;72.38;100624.50;4978065;28;45287;-45
2024/01/01 07:10:06;;;;;;;;;2.00;0.33;;;;;7.67;73.16;100640.28;4978296;28;45285;-47
2024/01/01 07:12:32;;;;;;;;;2.33;1.67;;;;;7.67;72.52;100636.78;4978283;28;45347;-46
2024/01/01 07:14:57;;;;;;;;;1.33;1.33;;;;;7.67;72.53;100639.44;4977797;28;46366;-45
2024/01/01 07:17:22;;;;;;;;;2.00;1.00;;;;;7.64;72.31;100637.03;4977978;28;45244;-45
2024/01/01 07:19:48;;;;;;;;;1.00;1.00;;;;;7.63;72.78;100636.22;4977876;28;45339;-45
2024/01/01 07:22:13;;;;;;;;;2.00;0.33;;;;;7.61;73.52;100638.13;4978265;28;45259;-49
2024/01/01 07:24:39;;;;;;;;;1.00;1.00;;;;;7.61;71.93;100638.13;4977948;28;45410;-45
2024/01/01 07:27:05;;;;;;;;;2.00;1.00;;;;;7.43;72.73;100610.59;4977697;28;45544;-48
2024/01/01 07:29:30;;;;;;;;;5.67;2.00;;;;;7.62;72.80;100645.09;4977860;28;45395;-47
2024/01/01 07:31:56;;;;;;;;;2.67;1.00;;;;;7.64;73.12;100645.00;4978005;28;45690;-51
2024/01/01 07:34:22;;;;;;;;;2.00;2.00;;;;;7.63;73.09;100648.63;4977575;28;47116;-44
2024/01/01 07:36:48;;;;;;;;;1.33;1.33;;;;;7.61;73.37;100654.03;4977202;28;45255;-53
2024/01/01 07:39:19;;;;;;;;;2.00;2.00;;;;;7.64;72.56;100656.41;4977783;28;45439;-52
2024/01/01 07:41:47;;;;;;;;;1.67;0.67;;;;;7.66;72.37;100651.81;4977892;28;45481;-49
2024/01/01 07:44:12;;;;;;;;;5.67;1.00;;;;;7.64;73.32;100651.13;4975875;28;48102;-53
2024/01/01 07:46:39;;;;;;;;;4.33;1.00;;;;;7.69;72.75;100656.84;4977423;28;45444;-52
2024/01/01 07:49:06;;;;;;;;;1.00;1.00;;;;;7.69;72.89;100658.66;4976152;28;45384;-51
2024/01/01 07:51:31;;;;;;;;;4.33;2.67;;;;;7.70;72.42;100668.28;4977556;28;45395;-44
2024/01/01 07:53:57;;;;;;;;;10.75;4.50;;;;;7.72;73.17;100676.97;4977061;28;47127;-53
2024/01/01 07:56:22;;;;;;;;;1.67;1.00;;;;;7.73;72.53;100671.50;4977596;28;45393;-53
2024/01/01 07:58:48;;;;;;;;;1.00;0.00;;;;;7.75;72.75;100669.59;4977373;28;45299;-47
2024/01/01 08:01:16;;;;;;;;;4.33;1.00;;;;;7.77;72.38;100677.41;4977394;28;45489;-54
2024/01/01 08:03:41;;;;;;;;;8.67;1.33;;;;;7.79;73.32;100683.38;4976765;28;46213;-50
2024/01/01 08:06:07;;;;;;;;;6.33;3.33;;;;;7.82;72.93;100693.72;4976971;28;45402;-52
2024/01/01 08:08:32;;;;;;;;;9.00;2.00;;;;;7.75;72.26;100669.59;4977044;28;45427;-50
2024/01/01 08:10:57;;;;;;;;;4.67;3.33;;;;;7.82;72.33;100677.84;4992468;28;45420;-51
2024/01/01 08:13:23;;;;;;;;;1.00;0.67;;;;;7.91;72.76;100692.09;4976908;28;45393;-49
2024/01/01 08:15:48;;;;;;;;;3.33;2.00;;;;;7.92;71.83;100702.59;4976804;28;45416;-52
2024/01/01 08:18:13;;;;;;;;;4.00;1.00;;;;;7.94;72.67;100699.78;4976977;28;45590;-52
2024/01/01 08:20:39;;;;;;;;;1.67;1.00;;;;;7.95;72.48;100704.13;4976931;28;45458;-49
2024/01/01 08:23:04;;;;;;;;;1.00;0.67;;;;;7.96;71.94;100706.66;4976859;28;45377;-52
2024/01/01 08:25:29;;;;;;;;;3.00;1.00;;;;;7.99;72.05;100710.84;4976880;28;45401;-52
2024/01/01 08:27:55;;;;;;;;;1.33;1.00;;;;;8.03;72.42;100717.56;4977117;28;45470;-52
2024/01/01 08:30:20;;;;;;;;;1.67;0.67;;;;;8.05;72.36;100707.69;4977093;28;45486;-52
2024/01/01 08:32:45;;;;;;;;;0.00;0.00;;;;;8.07;72.26;100726.91;4976470;28;45949;-52
2024/01/01 08:35:11;;;;;;;;;5.67;0.33;;;;;8.10;72.34;100723.19;4976595;28;45390;-52
2024/01/01 08:37:36;;;;;;;;;2.67;0.00;;;;;8.10;72.55;100728.47;4976628;28;45420;-52
2024/01/01 08:40:02;;;;;;;;;0.00;0.00;;;;;8.13;72.28;100731.72;4977098;28;45243;-53
2024/01/01 08:42:27;;;;;;;;;1.33;0.00;;;;;8.16;72.40;100731.44;4976661;28;46280;-48
2024/01/01 08:44:53;;;;;;;;;2.00;1.00;;;;;8.18;72.56;100739.25;4976603;28;45387;-51
2024/01/01 08:47:19;;;;;;;;;1.00;1.00;;;;;8.20;71.34;100735.50;4977032;28;45291;-48
2024/01/01 08:49:44;;;;;;;;;1.00;1.00;;;;;8.19;71.78;100733.81;4982847;28;45405;-52
2024/01/01 08:52:09;;;;;;;;;2.00;1.33;;;;;8.19;72.31;100728.53;4982887;28;46070;-53
2024/01/01 08:54:35;;;;;;;;;3.67;1.00;;;;;8.23;72.64;100740.53;4983163;28;45276;-51
2024/01/01 08:57:00;;;;;;;;;0.33;0.33;;;;;8.25;72.25;100746.53;4983000;28;45264;-51
2024/01/01 08:59:25;;;;;;;;;4.67;1.00;;;;;8.27;72.16;100745.59;4983513;28;45371;-52
2024/01/01 09:01:51;;;;;;;;;4.67;1.00;;;;;8.32;72.39;100744.22;4982943;28;45466;-50
2024/01/01 09:04:17;;;;;;;;;7.00;2.00;;;;;8.36;72.56;100739.47;4982848;28;45291;-44
2024/01/01 09:06:43;;;;;;;;;0.67;0.00;;;;;8.43;72.28;100749.47;4982939;28;45476;-44
2024/01/01 09:09:10;;;;;;;;;6.00;6.00;;;;;8.49;71.82;100746.25;4982962;28;45376;-44
2024/01/01 09:11:35;;;;;;;;;3.67;1.00;;;;;8.55;71.71;100738.75;4982716;28;46109;-46
2024/01/01 09:14:01;;;;;;;;;3.33;1.33;;;;;8.65;71.07;100750.25;4981438;28;46159;-51
2024/01/01 09:16:29;;;;;;;;;1.67;1.00;;;;;8.74;71.40;100747.63;4983054;28;45621;-53
2024/01/01 09:19:01;;;;;;;;;1.00;1.00;;;;;8.82;70.82;100744.28;4983205;28;45472;-52
2024/01/01 09:21:26;;;;;;;;;3.33;0.00;;;;;8.90;71.04;100747.13;4982706;28;46665;-53
2024/01/01 09:23:57;;;;;;;;;1.33;1.33;;;;;8.99;70.72;100758.72;4981484;28;45283;-48
2024/01/01 09:26:23;;;;;;;;;6.00;2.00;;;;;9.11;69.88;100760.28;4982946;28;45357;-51
2024/01/01 09:28:50;;;;;;;;;1.00;1.00;;;;;9.16;69.75;100768.66;4982708;28;45437;-52
2024/01/01 09:31:15;;;;;;;;;5.00;2.67;;;;;9.28;69.24;100768.56;4982391;28;46122;-50
2024/01/01 09:33:40;;;;;;;;;8.33;2.00;;;;;9.42;69.34;100778.75;4982185;28;45438;-53
2024/01/01 09:36:06;;;;;;;;;7.00;4.33;;;;;9.57;68.51;100792.50;4982313;28;46185;-47
2024/01/01 09:38:32;;;;;;;;;5.00;1.33;;;;;9.74;68.43;100797.94;4982760;28;45383;-51
2024/01/01 09:40:57;;;;;;;;;7.00;2.00;;;;;9.80;68.32;100799.19;4982326;28;46922;-52
2024/01/01 09:43:23;;;;;;;;;1.00;0.00;;;;;9.81;68.19;100805.34;4982839;28;45418;-54
2024/01/01 09:45:48;;;;;;;;;5.67;1.00;;;;;9.77;67.91;100804.78;4982654;28;45344;-53
2024/01/01 09:48:14;;;;;;;;;3.33;0.33;;;;;9.78;67.83;100802.97;4982800;28;45254;-51
2024/01/01 09:50:42;;;;;;;;;1.67;1.67;;;;;9.69;67.87;100807.28;4982201;28;46443;-52
2024/01/01 09:53:08;;;;;;;;;0.00;0.00;;;;;9.68;68.79;100808.28;4982197;28;45443;-51
2024/01/01 09:55:34;;;;;;;;;2.00;1.00;;;;;9.59;68.47;100796.66;4982512;28;45380;-53
2024/01/01 09:57:59;;;;;;;;;3.33;2.00;;;;;9.63;68.53;100810.50;4982418;28;45319;-53
2024/01/01 10:00:25;;;;;;;;;8.00;2.67;;;;;9.58;68.68;100807.44;4978585;28;46900;-53
2024/01/01 10:02:51;;;;;;;;;2.67;2.00;;;;;9.57;68.81;100803.94;4979246;28;45407;-52
2024/01/01 10:05:16;;;;;;;;;3.00;0.00;;;;;9.59;68.72;100804.63;4978987;28;45244;-53
2024/01/01 10:07:44;;;;;;;;;1.67;1.67;;;;;9.64;68.85;100798.91;4978978;28;45285;-53
2024/01/01 10:10:10;;;;;;;;;3.00;0.00;;;;;9.66;68.74;100802.28;4978750;28;47231;-47
2024/01/01 10:12:36;;;;;;;;;1.33;1.33;;;;;9.74;68.57;100802.41;4978456;28;45603;-50
2024/01/01 10:15:01;;;;;;;;;6.00;1.00;;;;;9.67;68.69;100795.97;4978737;28;45433;-52
2024/01/01 10:17:27;;;;;;;;;7.67;1.00;;;;;9.78;68.30;100803.81;4978888;28;45299;-45
2024/01/01 10:19:56;;;;;;;;;3.33;2.00;;;;;9.81;68.47;100806.16;4978585;28;46133;-47
2024/01/01 10:22:27;;;;;;;;;4.33;1.67;;;;;9.86;68.41;100801.28;4978699;28;45357;-53
2024/01/01 10:24:54;;;;;;;;;4.67;2.00;;;;;9.88;68.26;100793.16;4978656;28;45395;-53
2024/01/01 10:27:20;;;;;;;;;2.33;2.33;;;;;9.95;68.25;100805.75;4978597;28;45399;-50
2024/01/01 10:29:49;;;;;;;;;2.00;2.00;;;;;9.99;68.48;100795.69;4978306;28;46151;-51
2024/01/01 10:32:18;;;;;;;;;11.67;2.33;;;;;9.98;68.42;100810.78;4978282;28;45304;-51
2024/01/01 10:34:47;;;;;;;;;5.00;2.33;;;;;9.97;68.24;100794.97;4978471;28;45376;-52
2024/01/01 10:37:14;;;;;;;;;5.33;3.00;;;;;10.00;68.13;100797.38;4978547;28;45254;-53
2024/01/01 10:39:41;;;;;;;;;14.00;5.33;;;;;10.05;68.20;100799.59;4978103;28;45425;-51
2024/01/01 10:42:09;;;;;;;;;5.33;1.00;;;;;10.04;68.18;100772.19;4978460;28;45315;-45
2024/01/01 10:44:34;;;;;;;;;3.00;2.00;;;;;10.08;68.12;100765.59;4978631;28;45382;-50
2024/01/01 10:47:06;;;;;;;;;5.33;3.00;;;;;10.15;68.07;100777.31;4978497;28;45378;-52
2024/01/01 10:49:32;;;;;;;;;8.00;1.67;;;;;10.16;68.13;100767.53;4977858;28;46305;-52
2024/01/01 10:52:31;;;;;;;;;2.00;1.00;;;;;10.28;68.04;100781.53;4978057;28;45543;-43
2024/01/01 10:55:17;;;;;;;;;7.00;3.00;;;;;10.34;67.73;100778.31;4978569;28;45522;-52
2024/01/01 10:57:54;;;;;;;;;1.00;1.00;;;;;10.39;67.67;100778.69;4978740;28;45310;-51
2024/01/01 11:00:36;;;;;;;;;4.00;3.67;;;;;10.36;67.51;100777.16;4978030;28;46163;-52
2024/01/01 11:03:02;;;;;;;;;1.00;1.00;;;;;10.39;67.55;100782.19;4977830;28;45426;-51
2024/01/01 11:05:34;;;;;;;;;7.00;1.00;;;;;10.45;67.89;100783.47;4978068;28;45308;-51
2024/01/01 11:08:01;;;;;;;;;2.67;2.00;;;;;10.62;67.32;100780.03;4977973;28;45422;-53
2024/01/01 11:10:44;;;;;;;;;4.67;1.00;;;;;10.63;67.02;100780.88;4977766;28;45935;-52
2024/01/01 11:13:26;;;;;;;;;1.33;1.00;;;;;10.62;67.16;100779.16;4977606;28;45307;-53
2024/01/01 11:15:58;;;;;;;;;2.67;2.33;;;;;10.58;66.91;100773.31;4978018;28;45292;-49
2024/01/01 11:18:32;;;;;;;;;3.67;2.67;;;;;10.62;67.21;100789.81;4978053;28;45264;-53
2024/01/01 11:21:01;;;;;;;;;2.67;0.67;;;;;10.63;67.30;100784.34;4977818;28;47195;-52
2024/01/01 11:23:45;;;;;;;;;1.67;1.00;;;;;10.69;67.33;100786.44;4977622;28;45225;-53
2024/01/01 11:26:23;;;;;;;;;6.33;1.33;;;;;10.91;66.74;100785.22;4977866;28;45343;-53